createdAt,value
2023-02-17T00:00:20.319Z,1027.5
2023-02-17T00:01:22.227Z,1027.5
2023-02-17T00:02:24.216Z,1027.5
2023-02-17T00:03:26.085Z,1027.5
2023-02-17T00:04:27.889Z,1027.5
2023-02-17T00:05:29.846Z,1027.5
2023-02-17T00:06:31.588Z,1027.5
2023-02-17T00:07:33.614Z,1027.5
2023-02-17T00:08:35.328Z,1027.5
2023-02-17T00:09:37.735Z,1027.5
2023-02-17T00:10:39.096Z,1027.5
2023-02-17T00:11:41.067Z,1027.5
2023-02-17T00:12:42.862Z,1027.5
2023-02-17T00:13:45.360Z,1027.5
2023-02-17T00:14:46.800Z,1027.5
2023-02-17T00:15:48.695Z,1027.5
2023-02-17T00:16:50.528Z,1027.4
2023-02-17T00:17:52.678Z,1027.4
2023-02-17T00:18:54.301Z,1027.4
2023-02-17T00:19:56.181Z,1027.5
2023-02-17T00:20:58.219Z,1027.4
2023-02-17T00:21:59.916Z,1027.4
2023-02-17T00:23:01.856Z,1027.4
2023-02-17T00:24:03.833Z,1027.4
2023-02-17T00:25:05.576Z,1027.4
2023-02-17T00:26:08.245Z,1027.4
2023-02-17T00:27:09.714Z,1027.4
2023-02-17T00:28:11.475Z,1027.5
2023-02-17T00:29:13.336Z,1027.5
2023-02-17T00:30:15.421Z,1027.5
2023-02-17T00:31:17.375Z,1027.5
2023-02-17T00:32:19.007Z,1027.6
2023-02-17T00:33:20.885Z,1027.6
2023-02-17T00:34:22.788Z,1027.5
2023-02-17T00:35:24.678Z,1027.5
2023-02-17T00:36:26.553Z,1027.5
2023-02-17T00:37:28.466Z,1027.5
2023-02-17T00:38:30.286Z,1027.5
2023-02-17T00:39:32.210Z,1027.5
2023-02-17T00:40:34.216Z,1027.5
2023-02-17T00:41:35.991Z,1027.5
2023-02-17T00:42:37.870Z,1027.5
2023-02-17T00:43:39.756Z,1027.5
2023-02-17T00:44:41.669Z,1027.5
2023-02-17T00:45:43.659Z,1027.5
2023-02-17T00:46:45.588Z,1027.5
2023-02-17T00:47:47.891Z,1027.5
2023-02-17T00:48:49.477Z,1027.5
2023-02-17T00:49:51.110Z,1027.5
2023-02-17T00:50:53.071Z,1027.5
2023-02-17T00:51:55.334Z,1027.5
2023-02-17T00:52:56.751Z,1027.5
2023-02-17T00:53:58.712Z,1027.5
2023-02-17T00:55:00.510Z,1027.5
2023-02-17T00:56:02.777Z,1027.5
2023-02-17T00:57:04.336Z,1027.5
2023-02-17T00:58:06.153Z,1027.5
2023-02-17T00:59:08.052Z,1027.5
2023-02-17T01:00:10.212Z,1027.5
2023-02-17T01:01:11.997Z,1027.5
2023-02-17T01:02:13.781Z,1027.5
2023-02-17T01:03:15.676Z,1027.5
2023-02-17T01:04:17.474Z,1027.5
2023-02-17T01:05:19.352Z,1027.5
2023-02-17T01:06:21.335Z,1027.5
2023-02-17T01:07:23.114Z,1027.5
2023-02-17T01:08:25.031Z,1027.4
2023-02-17T01:09:26.901Z,1027.5
2023-02-17T01:10:28.836Z,1027.5
2023-02-17T01:11:30.712Z,1027.5
2023-02-17T01:12:32.588Z,1027.5
2023-02-17T01:13:34.529Z,1027.5
2023-02-17T01:14:36.330Z,1027.5
2023-02-17T01:15:38.291Z,1027.5
2023-02-17T01:16:40.307Z,1027.5
2023-02-17T01:17:42.019Z,1027.5
2023-02-17T01:18:43.870Z,1027.5
2023-02-17T01:19:45.843Z,1027.5
2023-02-17T01:20:47.652Z,1027.5
2023-02-17T01:21:49.558Z,1027.5
2023-02-17T01:22:51.431Z,1027.4
2023-02-17T01:23:53.312Z,1027.4
2023-02-17T01:24:55.170Z,1027.4
2023-02-17T01:25:57.150Z,1027.4
2023-02-17T01:26:59.023Z,1027.4
2023-02-17T01:28:00.798Z,1027.4
2023-02-17T01:29:02.758Z,1027.5
2023-02-17T01:30:04.656Z,1027.5
2023-02-17T01:31:06.685Z,1027.5
2023-02-17T01:32:08.478Z,1027.4
2023-02-17T01:33:10.232Z,1027.4
2023-02-17T01:34:12.569Z,1027.4
2023-02-17T01:35:13.958Z,1027.4
2023-02-17T01:36:16.002Z,1027.4
2023-02-17T01:37:17.731Z,1027.4
2023-02-17T01:38:20.151Z,1027.4
2023-02-17T01:39:21.631Z,1027.4
2023-02-17T01:40:23.436Z,1027.4
2023-02-17T01:41:25.308Z,1027.4
2023-02-17T01:42:27.589Z,1027.4
2023-02-17T01:43:29.089Z,1027.4
2023-02-17T01:44:31.217Z,1027.4
2023-02-17T01:45:32.898Z,1027.4
2023-02-17T01:46:34.965Z,1027.5
2023-02-17T01:47:36.744Z,1027.5
2023-02-17T01:48:38.575Z,1027.5
2023-02-17T01:49:40.449Z,1027.5
2023-02-17T01:50:42.295Z,1027.5
2023-02-17T01:51:44.294Z,1027.6
2023-02-17T01:52:46.075Z,1027.6
2023-02-17T01:53:47.934Z,1027.6
2023-02-17T01:54:49.940Z,1027.6
2023-02-17T01:55:51.700Z,1027.6
2023-02-17T01:56:53.595Z,1027.6
2023-02-17T01:57:55.514Z,1027.6
2023-02-17T01:58:57.387Z,1027.6
2023-02-17T01:59:59.233Z,1027.6
2023-02-17T02:01:01.134Z,1027.6
2023-02-17T02:02:03.231Z,1027.6
2023-02-17T02:03:05.078Z,1027.6
2023-02-17T02:04:06.855Z,1027.6
2023-02-17T02:05:08.635Z,1027.6
2023-02-17T02:06:10.515Z,1027.6
2023-02-17T02:07:12.475Z,1027.6
2023-02-17T02:08:14.335Z,1027.6
2023-02-17T02:09:16.144Z,1027.6
2023-02-17T02:10:18.044Z,1027.6
2023-02-17T02:11:20.006Z,1027.6
2023-02-17T02:12:21.846Z,1027.6
2023-02-17T02:13:23.686Z,1027.6
2023-02-17T02:14:25.641Z,1027.6
2023-02-17T02:15:27.448Z,1027.6
2023-02-17T02:16:29.448Z,1027.6
2023-02-17T02:17:31.258Z,1027.6
2023-02-17T02:18:33.121Z,1027.6
2023-02-17T02:19:34.943Z,1027.6
2023-02-17T02:20:37.349Z,1027.6
2023-02-17T02:21:38.722Z,1027.6
2023-02-17T02:22:40.664Z,1027.6
2023-02-17T02:23:42.595Z,1027.6
2023-02-17T02:24:44.944Z,1027.5
2023-02-17T02:25:46.285Z,1027.5
2023-02-17T02:26:48.285Z,1027.5
2023-02-17T02:27:50.085Z,1027.5
2023-02-17T02:28:52.265Z,1027.5
2023-02-17T02:29:54.039Z,1027.5
2023-02-17T02:30:55.810Z,1027.5
2023-02-17T02:31:57.724Z,1027.6
2023-02-17T02:32:59.666Z,1027.6
2023-02-17T02:34:01.445Z,1027.6
2023-02-17T02:35:03.231Z,1027.6
2023-02-17T02:36:05.883Z,1027.6
2023-02-17T02:37:17.710Z,1027.6
2023-02-17T02:38:20.227Z,1027.6
2023-02-17T02:39:31.366Z,1027.6
2023-02-17T02:40:33.310Z,1027.6
2023-02-17T02:41:35.755Z,1027.6
2023-02-17T02:42:37.047Z,1027.6
2023-02-17T02:43:38.998Z,1027.6
2023-02-17T02:44:40.920Z,1027.6
2023-02-17T02:45:43.041Z,1027.6
2023-02-17T02:46:44.649Z,1027.7
2023-02-17T02:47:46.486Z,1027.7
2023-02-17T02:48:48.645Z,1027.7
2023-02-17T02:49:50.423Z,1027.7
2023-02-17T02:50:52.185Z,1027.7
2023-02-17T02:51:54.066Z,1027.7
2023-02-17T02:52:55.896Z,1027.7
2023-02-17T02:53:58.031Z,1027.7
2023-02-17T02:54:59.738Z,1027.6
2023-02-17T02:56:01.744Z,1027.6
2023-02-17T02:57:03.580Z,1027.6
2023-02-17T02:58:05.360Z,1027.6
2023-02-17T02:59:07.285Z,1027.6
2023-02-17T03:00:09.220Z,1027.6
2023-02-17T03:01:11.212Z,1027.6
2023-02-17T03:02:12.902Z,1027.6
2023-02-17T03:03:14.989Z,1027.6
2023-02-17T03:04:17.061Z,1027.7
2023-02-17T03:05:18.787Z,1027.7
2023-02-17T03:06:20.654Z,1027.7
2023-02-17T03:07:22.521Z,1027.7
2023-02-17T03:08:24.320Z,1027.7
2023-02-17T03:09:26.203Z,1027.6
2023-02-17T03:10:28.180Z,1027.6
2023-02-17T03:11:29.988Z,1027.6
2023-02-17T03:12:31.902Z,1027.6
2023-02-17T03:13:33.769Z,1027.6
2023-02-17T03:14:35.629Z,1027.6
2023-02-17T03:15:37.490Z,1027.6
2023-02-17T03:16:39.425Z,1027.6
2023-02-17T03:17:41.252Z,1027.6
2023-02-17T03:18:43.171Z,1027.6
2023-02-17T03:19:45.599Z,1027.6
2023-02-17T03:20:46.986Z,1027.6
2023-02-17T03:21:48.783Z,1027.6
2023-02-17T03:22:50.733Z,1027.6
2023-02-17T03:23:53.009Z,1027.6
2023-02-17T03:24:54.438Z,1027.6
2023-02-17T03:25:56.419Z,1027.6
2023-02-17T03:26:58.200Z,1027.6
2023-02-17T03:28:00.391Z,1027.6
2023-02-17T03:29:02.043Z,1027.6
2023-02-17T03:30:03.999Z,1027.6
2023-02-17T03:31:05.820Z,1027.5
2023-02-17T03:32:07.932Z,1027.5
2023-02-17T03:33:09.596Z,1027.5
2023-02-17T03:34:11.404Z,1027.5
2023-02-17T03:35:13.304Z,1027.5
2023-02-17T03:36:15.172Z,1027.5
2023-02-17T03:37:17.010Z,1027.5
2023-02-17T03:38:18.989Z,1027.5
2023-02-17T03:39:20.799Z,1027.5
2023-02-17T03:40:22.662Z,1027.5
2023-02-17T03:41:24.570Z,1027.4
2023-02-17T03:42:26.542Z,1027.4
2023-02-17T03:43:28.339Z,1027.4
2023-02-17T03:44:30.210Z,1027.4
2023-02-17T03:45:32.117Z,1027.4
2023-02-17T03:46:34.050Z,1027.4
2023-02-17T03:47:35.850Z,1027.4
2023-02-17T03:48:37.720Z,1027.5
2023-02-17T03:49:39.723Z,1027.5
2023-02-17T03:50:41.572Z,1027.5
2023-02-17T03:51:43.463Z,1027.5
2023-02-17T03:52:45.398Z,1027.5
2023-02-17T03:53:47.302Z,1027.5
2023-02-17T03:54:49.108Z,1027.5
2023-02-17T03:55:51.050Z,1027.5
2023-02-17T03:56:52.938Z,1027.5
2023-02-17T03:57:54.846Z,1027.6
2023-02-17T03:58:56.717Z,1027.6
2023-02-17T03:59:58.646Z,1027.6
2023-02-17T04:01:00.529Z,1027.6
2023-02-17T04:02:02.365Z,1027.6
2023-02-17T04:03:04.358Z,1027.6
2023-02-17T04:04:06.201Z,1027.6
2023-02-17T04:05:08.000Z,1027.6
2023-02-17T04:06:10.368Z,1027.6
2023-02-17T04:07:11.791Z,1027.7
2023-02-17T04:08:13.624Z,1027.7
2023-02-17T04:09:15.525Z,1027.7
2023-02-17T04:10:18.057Z,1027.7
2023-02-17T04:11:19.274Z,1027.7
2023-02-17T04:12:21.213Z,1027.7
2023-02-17T04:13:23.035Z,1027.7
2023-02-17T04:14:25.177Z,1027.7
2023-02-17T04:15:26.918Z,1027.7
2023-02-17T04:16:28.738Z,1027.7
2023-02-17T04:17:30.658Z,1027.7
2023-02-17T04:18:32.600Z,1027.7
2023-02-17T04:19:34.426Z,1027.7
2023-02-17T04:20:36.266Z,1027.7
2023-02-17T04:21:38.166Z,1027.7
2023-02-17T04:22:40.145Z,1027.7
2023-02-17T04:23:41.899Z,1027.7
2023-02-17T04:24:43.806Z,1027.7
2023-02-17T04:25:45.702Z,1027.7
2023-02-17T04:26:47.565Z,1027.7
2023-02-17T04:27:49.405Z,1027.7
2023-02-17T04:28:51.356Z,1027.7
2023-02-17T04:29:53.207Z,1027.7
2023-02-17T04:30:55.218Z,1027.7
2023-02-17T04:31:57.440Z,1027.7
2023-02-17T04:33:09.220Z,1027.7
2023-02-17T04:34:11.012Z,1027.7
2023-02-17T04:35:12.975Z,1027.7
2023-02-17T04:36:14.808Z,1027.7
2023-02-17T04:37:16.757Z,1027.7
2023-02-17T04:38:18.699Z,1027.7
2023-02-17T04:39:20.458Z,1027.7
2023-02-17T04:40:22.326Z,1027.7
2023-02-17T04:41:24.231Z,1027.8
2023-02-17T04:42:26.175Z,1027.8
2023-02-17T04:43:27.979Z,1027.8
2023-02-17T04:44:29.850Z,1027.8
2023-02-17T04:45:31.809Z,1027.8
2023-02-17T04:46:33.647Z,1027.8
2023-02-17T04:47:35.533Z,1027.8
2023-02-17T04:48:37.483Z,1027.8
2023-02-17T04:49:39.288Z,1027.8
2023-02-17T04:50:41.194Z,1027.8
2023-02-17T04:51:43.110Z,1027.8
2023-02-17T04:52:44.945Z,1027.8
2023-02-17T04:53:46.899Z,1027.8
2023-02-17T04:54:48.749Z,1027.8
2023-02-17T04:55:50.659Z,1027.8
2023-02-17T04:56:52.565Z,1027.8
2023-02-17T04:57:54.434Z,1027.8
2023-02-17T04:58:56.283Z,1027.8
2023-02-17T04:59:58.183Z,1027.8
2023-02-17T05:01:00.624Z,1027.8
2023-02-17T05:02:01.944Z,1027.8
2023-02-17T05:03:03.839Z,1027.8
2023-02-17T05:04:05.812Z,1027.8
2023-02-17T05:05:08.255Z,1027.8
2023-02-17T05:06:09.519Z,1027.8
2023-02-17T05:07:11.344Z,1027.8
2023-02-17T05:08:13.279Z,1027.8
2023-02-17T05:09:15.356Z,1027.8
2023-02-17T05:10:17.006Z,1027.8
2023-02-17T05:11:18.866Z,1027.8
2023-02-17T05:12:20.743Z,1027.9
2023-02-17T05:13:22.713Z,1027.9
2023-02-17T05:14:24.546Z,1027.9
2023-02-17T05:15:26.412Z,1027.9
2023-02-17T05:16:28.281Z,1027.9
2023-02-17T05:17:30.204Z,1027.9
2023-02-17T05:18:32.061Z,1027.9
2023-02-17T05:19:33.922Z,1027.9
2023-02-17T05:20:35.916Z,1027.9
2023-02-17T05:21:37.713Z,1027.9
2023-02-17T05:22:39.685Z,1027.9
2023-02-17T05:23:41.670Z,1027.9
2023-02-17T05:24:43.408Z,1027.9
2023-02-17T05:25:45.263Z,1027.9
2023-02-17T05:26:47.225Z,1027.9
2023-02-17T05:27:49.057Z,1028
2023-02-17T05:28:50.935Z,1028
2023-02-17T05:29:52.871Z,1028
2023-02-17T05:30:54.784Z,1028
2023-02-17T05:31:56.696Z,1028
2023-02-17T05:32:58.524Z,1028
2023-02-17T05:34:00.465Z,1028
2023-02-17T05:35:02.233Z,1028.1
2023-02-17T05:36:05.117Z,1028
2023-02-17T05:37:16.325Z,1028.1
2023-02-17T05:38:18.185Z,1028
2023-02-17T05:39:20.094Z,1028
2023-02-17T05:40:22.031Z,1028
2023-02-17T05:41:23.845Z,1028
2023-02-17T05:42:25.762Z,1028
2023-02-17T05:43:27.737Z,1028
2023-02-17T05:44:29.536Z,1028
2023-02-17T05:45:31.385Z,1028
2023-02-17T05:46:33.449Z,1028
2023-02-17T05:47:35.175Z,1028
2023-02-17T05:48:37.054Z,1027.9
2023-02-17T05:49:39.063Z,1027.9
2023-02-17T05:50:40.817Z,1027.9
2023-02-17T05:51:42.689Z,1028
2023-02-17T05:52:44.576Z,1028
2023-02-17T05:53:46.509Z,1028
2023-02-17T05:54:48.387Z,1028
2023-02-17T05:55:50.860Z,1028
2023-02-17T05:56:52.230Z,1028
2023-02-17T05:57:54.009Z,1028
2023-02-17T05:58:55.920Z,1028
2023-02-17T05:59:58.190Z,1028
2023-02-17T06:00:59.700Z,1028
2023-02-17T06:02:01.632Z,1028
2023-02-17T06:03:03.762Z,1028.1
2023-02-17T06:04:05.426Z,1028.1
2023-02-17T06:05:07.442Z,1028.1
2023-02-17T06:06:09.356Z,1028.1
2023-02-17T06:07:10.989Z,1028.1
2023-02-17T06:08:12.899Z,1028.1
2023-02-17T06:09:14.829Z,1028.1
2023-02-17T06:10:16.696Z,1028.1
2023-02-17T06:11:18.631Z,1028.1
2023-02-17T06:12:20.519Z,1028.1
2023-02-17T06:13:22.338Z,1028.1
2023-02-17T06:14:24.296Z,1028.1
2023-02-17T06:15:26.249Z,1028.1
2023-02-17T06:16:28.118Z,1028.1
2023-02-17T06:17:29.909Z,1028.2
2023-02-17T06:18:31.811Z,1028.2
2023-02-17T06:19:33.728Z,1028.2
2023-02-17T06:20:35.542Z,1028.2
2023-02-17T06:21:37.440Z,1028.2
2023-02-17T06:22:39.290Z,1028.2
2023-02-17T06:23:41.190Z,1028.2
2023-02-17T06:24:43.129Z,1028.2
2023-02-17T06:25:44.992Z,1028.2
2023-02-17T06:26:46.885Z,1028.2
2023-02-17T06:27:48.751Z,1028.2
2023-02-17T06:28:50.639Z,1028.2
2023-02-17T06:29:52.504Z,1028.2
2023-02-17T06:30:54.629Z,1028.2
2023-02-17T06:31:56.610Z,1028.2
2023-02-17T06:32:58.168Z,1028.2
2023-02-17T06:34:00.042Z,1028.2
2023-02-17T06:35:02.070Z,1028.2
2023-02-17T06:36:04.468Z,1028.2
2023-02-17T06:37:16.094Z,1028.2
2023-02-17T06:38:18.066Z,1028.2
2023-02-17T06:39:19.886Z,1028.2
2023-02-17T06:40:21.715Z,1028.2
2023-02-17T06:41:23.605Z,1028.3
2023-02-17T06:42:26.101Z,1028.3
2023-02-17T06:43:27.337Z,1028.3
2023-02-17T06:44:29.247Z,1028.3
2023-02-17T06:45:31.317Z,1028.3
2023-02-17T06:46:33.506Z,1028.3
2023-02-17T06:47:34.885Z,1028.3
2023-02-17T06:48:36.846Z,1028.3
2023-02-17T06:49:41.135Z,1028.3
2023-02-17T06:50:50.860Z,1028.3
2023-02-17T06:51:52.744Z,1028.3
2023-02-17T06:52:54.692Z,1028.3
2023-02-17T06:53:56.533Z,1028.3
2023-02-17T06:54:58.944Z,1028.3
2023-02-17T06:56:00.414Z,1028.3
2023-02-17T06:57:02.270Z,1028.3
2023-02-17T06:58:04.170Z,1028.3
2023-02-17T06:59:06.364Z,1028.3
2023-02-17T07:00:07.930Z,1028.3
2023-02-17T07:01:09.788Z,1028.3
2023-02-17T07:02:11.974Z,1028.3
2023-02-17T07:03:13.636Z,1028.3
2023-02-17T07:04:15.425Z,1028.3
2023-02-17T07:05:17.356Z,1028.4
2023-02-17T07:06:19.179Z,1028.4
2023-02-17T07:07:21.094Z,1028.4
2023-02-17T07:08:23.218Z,1028.4
2023-02-17T07:09:25.199Z,1028.4
2023-02-17T07:10:26.989Z,1028.4
2023-02-17T07:11:28.879Z,1028.4
2023-02-17T07:12:30.747Z,1028.4
2023-02-17T07:13:32.690Z,1028.5
2023-02-17T07:14:34.538Z,1028.5
2023-02-17T07:15:36.458Z,1028.5
2023-02-17T07:16:38.521Z,1028.5
2023-02-17T07:17:40.250Z,1028.5
2023-02-17T07:18:42.165Z,1028.6
2023-02-17T07:19:44.009Z,1028.6
2023-02-17T07:20:45.858Z,1028.6
2023-02-17T07:21:47.894Z,1028.6
2023-02-17T07:22:49.659Z,1028.6
2023-02-17T07:23:51.538Z,1028.6
2023-02-17T07:24:53.438Z,1028.6
2023-02-17T07:25:55.391Z,1028.6
2023-02-17T07:26:57.186Z,1028.6
2023-02-17T07:27:59.079Z,1028.7
2023-02-17T07:29:01.688Z,1028.7
2023-02-17T07:30:02.989Z,1028.7
2023-02-17T07:31:04.940Z,1028.7
2023-02-17T07:32:06.751Z,1028.7
2023-02-17T07:33:09.001Z,1028.7
2023-02-17T07:34:10.349Z,1028.7
2023-02-17T07:35:12.258Z,1028.7
2023-02-17T07:36:14.141Z,1028.7
2023-02-17T07:37:16.520Z,1028.7
2023-02-17T07:38:17.928Z,1028.7
2023-02-17T07:39:19.792Z,1028.7
2023-02-17T07:40:21.677Z,1028.8
2023-02-17T07:41:23.837Z,1028.8
2023-02-17T07:42:25.755Z,1028.8
2023-02-17T07:43:27.616Z,1028.8
2023-02-17T07:44:29.539Z,1028.8
2023-02-17T07:45:31.406Z,1028.8
2023-02-17T07:46:33.275Z,1028.8
2023-02-17T07:47:35.194Z,1028.8
2023-02-17T07:48:37.105Z,1028.8
2023-02-17T07:49:38.915Z,1028.8
2023-02-17T07:50:40.785Z,1028.8
2023-02-17T07:51:42.776Z,1028.8
2023-02-17T07:52:44.534Z,1028.8
2023-02-17T07:53:46.462Z,1028.8
2023-02-17T07:54:48.455Z,1028.8
2023-02-17T07:55:50.216Z,1028.8
2023-02-17T07:56:52.125Z,1028.8
2023-02-17T07:57:54.055Z,1028.8
2023-02-17T07:58:55.974Z,1028.8
2023-02-17T07:59:57.801Z,1028.8
2023-02-17T08:00:59.625Z,1028.8
2023-02-17T08:02:01.703Z,1028.8
2023-02-17T08:03:03.427Z,1028.8
2023-02-17T08:04:05.388Z,1028.8
2023-02-17T08:05:07.269Z,1028.8
2023-02-17T08:06:09.084Z,1028.8
2023-02-17T08:07:10.964Z,1028.8
2023-02-17T08:08:12.877Z,1028.8
2023-02-17T08:09:14.754Z,1028.8
2023-02-17T08:10:16.673Z,1028.8
2023-02-17T08:11:18.991Z,1028.8
2023-02-17T08:12:20.425Z,1028.9
2023-02-17T08:13:22.340Z,1028.9
2023-02-17T08:14:24.268Z,1028.9
2023-02-17T08:15:26.800Z,1029
2023-02-17T08:16:28.084Z,1029
2023-02-17T08:17:29.986Z,1029
2023-02-17T08:18:36.881Z,1029
2023-02-17T08:19:49.561Z,1029.1
2023-02-17T08:20:56.175Z,1029.1
2023-02-17T08:21:58.046Z,1029.1
2023-02-17T08:22:59.935Z,1029.1
2023-02-17T08:24:01.862Z,1029.1
2023-02-17T08:25:03.804Z,1029.1
2023-02-17T08:26:06.301Z,1029.1
2023-02-17T08:27:17.803Z,1029.1
2023-02-17T08:28:19.693Z,1029.2
2023-02-17T08:29:21.794Z,1029.2
2023-02-17T08:30:23.603Z,1029.2
2023-02-17T08:31:25.791Z,1029.2
2023-02-17T08:32:27.761Z,1029.2
2023-02-17T08:33:29.104Z,1029.2
2023-02-17T08:34:30.975Z,1029.2
2023-02-17T08:35:32.954Z,1029.2
2023-02-17T08:36:35.259Z,1029.2
2023-02-17T08:37:36.636Z,1029.2
2023-02-17T08:38:38.597Z,1029.2
2023-02-17T08:39:40.399Z,1029.2
2023-02-17T08:40:42.676Z,1029.3
2023-02-17T08:41:44.195Z,1029.3
2023-02-17T08:42:46.056Z,1029.3
2023-02-17T08:43:47.925Z,1029.3
2023-02-17T08:44:50.153Z,1029.3
2023-02-17T08:45:51.737Z,1029.3
2023-02-17T08:46:53.688Z,1029.3
2023-02-17T08:47:55.586Z,1029.3
2023-02-17T08:48:57.345Z,1029.3
2023-02-17T08:49:59.255Z,1029.3
2023-02-17T08:51:01.157Z,1029.2
2023-02-17T08:52:03.037Z,1029.2
2023-02-17T08:53:04.844Z,1029.3
2023-02-17T08:54:06.751Z,1029.3
2023-02-17T08:55:08.775Z,1029.3
2023-02-17T08:56:10.455Z,1029.3
2023-02-17T08:57:12.426Z,1029.3
2023-02-17T08:58:14.289Z,1029.3
2023-02-17T08:59:16.137Z,1029.3
2023-02-17T09:00:18.128Z,1029.3
2023-02-17T09:01:20.025Z,1029.3
2023-02-17T09:02:21.817Z,1029.3
2023-02-17T09:03:23.602Z,1029.3
2023-02-17T09:04:25.759Z,1029.3
2023-02-17T09:05:27.386Z,1029.3
2023-02-17T09:06:29.351Z,1029.3
2023-02-17T09:07:31.302Z,1029.3
2023-02-17T09:08:33.098Z,1029.3
2023-02-17T09:09:34.927Z,1029.3
2023-02-17T09:10:36.927Z,1029.3
2023-02-17T09:11:38.695Z,1029.3
2023-02-17T09:12:40.616Z,1029.3
2023-02-17T09:13:42.586Z,1029.3
2023-02-17T09:14:44.437Z,1029.4
2023-02-17T09:15:46.462Z,1029.4
2023-02-17T09:16:48.205Z,1029.4
2023-02-17T09:17:50.148Z,1029.4
2023-02-17T09:18:51.932Z,1029.4
2023-02-17T09:19:53.888Z,1029.4
2023-02-17T09:20:55.698Z,1029.4
2023-02-17T09:21:57.607Z,1029.4
2023-02-17T09:23:00.177Z,1029.4
2023-02-17T09:24:01.379Z,1029.4
2023-02-17T09:25:03.278Z,1029.4
2023-02-17T09:26:06.089Z,1029.4
2023-02-17T09:27:17.904Z,1029.4
2023-02-17T09:28:19.245Z,1029.4
2023-02-17T09:29:21.177Z,1029.4
2023-02-17T09:30:23.208Z,1029.4
2023-02-17T09:31:25.828Z,1029.4
2023-02-17T09:32:37.174Z,1029.4
2023-02-17T09:33:39.162Z,1029.4
2023-02-17T09:34:40.913Z,1029.4
2023-02-17T09:35:43.417Z,1029.4
2023-02-17T09:36:44.735Z,1029.4
2023-02-17T09:37:46.638Z,1029.4
2023-02-17T09:38:48.477Z,1029.4
2023-02-17T09:39:50.853Z,1029.4
2023-02-17T09:40:52.416Z,1029.4
2023-02-17T09:41:54.198Z,1029.4
2023-02-17T09:42:56.101Z,1029.4
2023-02-17T09:43:58.355Z,1029.5
2023-02-17T09:44:59.829Z,1029.5
2023-02-17T09:46:01.791Z,1029.5
2023-02-17T09:47:03.949Z,1029.5
2023-02-17T09:48:05.479Z,1029.5
2023-02-17T09:49:07.469Z,1029.5
2023-02-17T09:50:09.269Z,1029.5
2023-02-17T09:51:12.820Z,1029.5
2023-02-17T09:52:23.560Z,1029.5
2023-02-17T09:53:25.245Z,1029.6
2023-02-17T09:54:27.139Z,1029.6
2023-02-17T09:55:29.089Z,1029.6
2023-02-17T09:56:33.800Z,1029.6
2023-02-17T09:57:43.048Z,1029.7
2023-02-17T09:58:44.980Z,1029.7
2023-02-17T09:59:46.879Z,1029.7
2023-02-17T10:00:48.964Z,1029.7
2023-02-17T10:01:50.749Z,1029.7
2023-02-17T10:02:52.646Z,1029.8
2023-02-17T10:03:54.539Z,1029.8
2023-02-17T10:04:56.513Z,1029.8
2023-02-17T10:05:58.215Z,1029.8
2023-02-17T10:07:00.158Z,1029.8
2023-02-17T10:08:02.042Z,1029.8
2023-02-17T10:09:03.896Z,1029.8
2023-02-17T10:10:05.792Z,1029.8
2023-02-17T10:11:07.672Z,1029.8
2023-02-17T10:12:09.555Z,1029.8
2023-02-17T10:13:11.505Z,1029.8
2023-02-17T10:14:13.278Z,1029.8
2023-02-17T10:15:18.160Z,1029.8
2023-02-17T10:16:27.687Z,1029.8
2023-02-17T10:17:29.304Z,1029.8
2023-02-17T10:18:31.379Z,1029.8
2023-02-17T10:19:33.147Z,1029.8
2023-02-17T10:20:35.077Z,1029.8
2023-02-17T10:21:36.877Z,1029.8
2023-02-17T10:22:38.765Z,1029.8
2023-02-17T10:23:40.933Z,1029.8
2023-02-17T10:24:42.776Z,1029.8
2023-02-17T10:25:44.465Z,1029.8
2023-02-17T10:26:48.412Z,1029.8
2023-02-17T10:27:58.662Z,1029.8
2023-02-17T10:29:00.565Z,1029.8
2023-02-17T10:30:02.544Z,1029.9
2023-02-17T10:31:04.597Z,1029.9
2023-02-17T10:32:20.485Z,1029.8
2023-02-17T10:33:28.685Z,1029.9
2023-02-17T10:34:31.495Z,1029.9
2023-02-17T10:35:32.385Z,1029.9
2023-02-17T10:36:34.411Z,1029.9
2023-02-17T10:37:38.992Z,1029.9
2023-02-17T10:38:48.313Z,1029.9
2023-02-17T10:39:50.282Z,1029.9
2023-02-17T10:40:52.100Z,1029.9
2023-02-17T10:41:53.984Z,1029.9
2023-02-17T10:42:55.894Z,1029.9
2023-02-17T10:43:57.751Z,1029.9
2023-02-17T10:44:59.705Z,1029.9
2023-02-17T10:46:01.578Z,1029.9
2023-02-17T10:47:03.412Z,1029.9
2023-02-17T10:48:05.287Z,1029.9
2023-02-17T10:49:07.554Z,1029.9
2023-02-17T10:50:09.028Z,1029.9
2023-02-17T10:51:10.937Z,1029.9
2023-02-17T10:52:13.032Z,1029.9
2023-02-17T10:53:14.880Z,1030
2023-02-17T10:54:16.715Z,1030
2023-02-17T10:55:23.827Z,1030
2023-02-17T10:56:30.776Z,1030
2023-02-17T10:57:32.721Z,1030
2023-02-17T10:58:34.555Z,1030
2023-02-17T10:59:36.467Z,1030.1
2023-02-17T11:00:38.461Z,1030.1
2023-02-17T11:01:40.206Z,1030.1
2023-02-17T11:02:42.173Z,1030.1
2023-02-17T11:03:44.162Z,1030.1
2023-02-17T11:04:45.906Z,1030.1
2023-02-17T11:05:47.865Z,1030.1
2023-02-17T11:06:49.675Z,1030.1
2023-02-17T11:07:51.591Z,1030.1
2023-02-17T11:08:53.436Z,1030.1
2023-02-17T11:09:55.367Z,1030.1
2023-02-17T11:10:57.215Z,1030.1
2023-02-17T11:11:59.100Z,1030.1
2023-02-17T11:13:01.067Z,1030.1
2023-02-17T11:14:02.836Z,1030.1
2023-02-17T11:15:04.755Z,1030.1
2023-02-17T11:16:07.540Z,1030.1
2023-02-17T11:17:18.855Z,1030.1
2023-02-17T11:18:20.838Z,1030.1
2023-02-17T11:19:22.899Z,1030.1
2023-02-17T11:20:24.619Z,1030.2
2023-02-17T11:21:27.077Z,1030.1
2023-02-17T11:22:28.296Z,1030.1
2023-02-17T11:23:30.310Z,1030.1
2023-02-17T11:24:32.065Z,1030.1
2023-02-17T11:25:34.477Z,1030.1
2023-02-17T11:26:36.022Z,1030.1
2023-02-17T11:27:37.910Z,1030.1
2023-02-17T11:28:39.796Z,1030.1
2023-02-17T11:29:41.917Z,1030.1
2023-02-17T11:30:43.628Z,1030.2
2023-02-17T11:31:45.673Z,1030.2
2023-02-17T11:32:47.440Z,1030.2
2023-02-17T11:33:49.197Z,1030.2
2023-02-17T11:34:51.116Z,1030.3
2023-02-17T11:35:53.060Z,1030.3
2023-02-17T11:36:54.901Z,1030.2
2023-02-17T11:37:56.839Z,1030.3
2023-02-17T11:38:58.742Z,1030.3
2023-02-17T11:40:00.604Z,1030.3
2023-02-17T11:41:02.491Z,1030.3
2023-02-17T11:42:04.360Z,1030.3
2023-02-17T11:43:06.308Z,1030.3
2023-02-17T11:44:08.169Z,1030.3
2023-02-17T11:45:10.049Z,1030.3
2023-02-17T11:46:12.037Z,1030.3
2023-02-17T11:47:14.030Z,1030.3
2023-02-17T11:48:15.859Z,1030.3
2023-02-17T11:49:17.738Z,1030.3
2023-02-17T11:50:40.319Z,1030.3
2023-02-17T11:51:52.491Z,1030.2
2023-02-17T11:52:54.329Z,1030.2
2023-02-17T11:53:56.191Z,1030.2
2023-02-17T11:54:58.252Z,1030.2
2023-02-17T11:55:59.996Z,1030.2
2023-02-17T11:57:01.877Z,1030.2
2023-02-17T11:58:04.032Z,1030.2
2023-02-17T11:59:05.663Z,1030.2
2023-02-17T12:00:07.545Z,1030.2
2023-02-17T12:01:09.466Z,1030.2
2023-02-17T12:02:11.304Z,1030.2
2023-02-17T12:03:13.234Z,1030.2
2023-02-17T12:04:15.205Z,1030.2
2023-02-17T12:05:17.122Z,1030.2
2023-02-17T12:06:18.863Z,1030.2
2023-02-17T12:07:20.763Z,1030.2
2023-02-17T12:08:24.603Z,1030.2
2023-02-17T12:09:34.831Z,1030.2
2023-02-17T12:10:36.872Z,1030.2
2023-02-17T12:11:38.563Z,1030.2
2023-02-17T12:12:40.482Z,1030.2
2023-02-17T12:13:42.416Z,1030.2
2023-02-17T12:14:44.246Z,1030.2
2023-02-17T12:15:46.085Z,1030.2
2023-02-17T12:16:48.096Z,1030.2
2023-02-17T12:17:49.921Z,1030.2
2023-02-17T12:18:51.734Z,1030.2
2023-02-17T12:19:53.634Z,1030.2
2023-02-17T12:20:55.615Z,1030.2
2023-02-17T12:21:57.415Z,1030.2
2023-02-17T12:22:59.272Z,1030.1
2023-02-17T12:24:01.255Z,1030.1
2023-02-17T12:25:03.055Z,1030.1
2023-02-17T12:26:05.646Z,1030.1
2023-02-17T12:27:19.176Z,1030.1
2023-02-17T12:28:29.442Z,1030.1
2023-02-17T12:29:31.274Z,1030.1
2023-02-17T12:30:33.390Z,1030.1
2023-02-17T12:31:35.403Z,1030.1
2023-02-17T12:32:36.941Z,1030.1
2023-02-17T12:33:38.814Z,1030.1
2023-02-17T12:34:40.843Z,1030.1
2023-02-17T12:35:42.634Z,1030.1
2023-02-17T12:36:44.476Z,1030
2023-02-17T12:37:48.676Z,1030
2023-02-17T12:38:58.675Z,1030
2023-02-17T12:40:00.476Z,1030
2023-02-17T12:41:02.414Z,1030
2023-02-17T12:42:04.459Z,1030
2023-02-17T12:43:06.415Z,1030
2023-02-17T12:44:08.075Z,1030
2023-02-17T12:45:10.063Z,1030
2023-02-17T12:46:11.919Z,1029.9
2023-02-17T12:47:13.716Z,1029.9
2023-02-17T12:48:15.695Z,1029.9
2023-02-17T12:49:17.476Z,1029.9
2023-02-17T12:50:19.344Z,1029.9
2023-02-17T12:51:21.284Z,1029.9
2023-02-17T12:52:23.254Z,1029.9
2023-02-17T12:53:25.047Z,1029.9
2023-02-17T12:54:27.536Z,1029.9
2023-02-17T12:55:29.004Z,1029.9
2023-02-17T12:56:30.844Z,1029.9
2023-02-17T12:57:32.787Z,1029.9
2023-02-17T12:58:34.905Z,1029.9
2023-02-17T12:59:36.604Z,1029.9